createdAt,value
2023-02-02T00:07:59.541Z,2.56
2023-02-02T00:19:08.128Z,2.67
2023-02-02T00:29:58.232Z,2.75
2023-02-02T00:41:12.291Z,2.60
2023-02-02T00:52:00.627Z,2.38
2023-02-02T01:02:38.531Z,2.25
2023-02-02T01:13:44.373Z,2.11
2023-02-02T01:24:41.609Z,1.98
2023-02-02T01:35:29.227Z,1.93
2023-02-02T01:45:57.032Z,2.03
2023-02-02T01:56:20.366Z,2.10
2023-02-02T02:07:01.876Z,2.09
2023-02-02T02:18:16.573Z,2.15
2023-02-02T02:29:50.067Z,2.20
2023-02-02T02:40:56.998Z,2.16
2023-02-02T02:52:30.978Z,2.11
2023-02-02T03:03:46.380Z,2.08
2023-02-02T03:14:51.414Z,2.02
2023-02-02T03:25:19.193Z,2.00
2023-02-02T03:36:15.673Z,1.96
2023-02-02T03:47:34.280Z,2.00
2023-02-02T03:58:06.246Z,2.04
2023-02-02T04:08:21.790Z,2.07
2023-02-02T04:18:42.748Z,2.12
2023-02-02T04:28:46.833Z,2.20
2023-02-02T04:39:45.054Z,2.26
2023-02-02T04:50:14.710Z,2.19
2023-02-02T05:01:01.831Z,2.16
2023-02-02T05:11:24.326Z,2.19
2023-02-02T05:22:49.599Z,2.26
2023-02-02T05:33:03.572Z,2.26
2023-02-02T05:43:39.171Z,2.16
2023-02-02T05:54:20.898Z,2.08
2023-02-02T06:04:48.134Z,2.09
2023-02-02T06:15:38.236Z,2.11
2023-02-02T06:26:16.856Z,2.16
2023-02-02T06:36:34.214Z,2.12
2023-02-02T06:46:41.777Z,2.15
2023-02-02T06:56:56.644Z,2.34
2023-02-02T07:07:03.806Z,2.68
2023-02-02T07:17:31.306Z,2.98
2023-02-02T07:27:49.403Z,3.04
2023-02-02T07:38:15.885Z,3.13
2023-02-02T07:48:20.116Z,3.23
2023-02-02T07:58:38.349Z,3.39
2023-02-02T08:08:45.596Z,3.39
2023-02-02T08:18:51.850Z,3.51
2023-02-02T08:29:19.235Z,3.53
2023-02-02T08:39:52.782Z,3.51
2023-02-02T08:50:23.540Z,3.55
2023-02-02T09:00:31.013Z,3.74
2023-02-02T09:10:40.883Z,4.06
2023-02-02T09:20:44.883Z,3.99
2023-02-02T09:30:52.247Z,3.76
2023-02-02T09:41:09.520Z,3.68
2023-02-02T09:51:57.869Z,3.46
2023-02-02T10:02:30.954Z,3.35
2023-02-02T10:12:49.679Z,3.23
2023-02-02T10:24:03.504Z,3.17
2023-02-02T10:35:13.645Z,3.06
2023-02-02T10:45:53.909Z,2.96
2023-02-02T10:56:29.431Z,2.96
2023-02-02T11:06:53.911Z,2.82
2023-02-02T11:17:54.048Z,2.73
2023-02-02T11:29:22.399Z,2.76
2023-02-02T11:40:00.258Z,2.92
2023-02-02T11:50:27.291Z,3.00
2023-02-02T12:00:49.809Z,2.93
2023-02-02T12:11:07.700Z,3.02
2023-02-02T12:21:57.999Z,3.12
2023-02-02T12:32:42.306Z,3.30
2023-02-02T12:43:07.527Z,3.29
2023-02-02T12:53:35.275Z,3.23
2023-02-02T13:03:55.539Z,3.09
2023-02-02T13:14:09.997Z,3.04
2023-02-02T13:24:27.776Z,3.07
2023-02-02T13:35:16.197Z,3.10
2023-02-02T13:45:26.990Z,2.75
2023-02-02T13:55:54.272Z,2.72
2023-02-02T14:06:27.560Z,2.86
2023-02-02T14:16:43.242Z,2.92
2023-02-02T14:27:30.881Z,2.98
2023-02-02T14:37:59.440Z,2.97
2023-02-02T14:48:21.058Z,2.95
2023-02-02T14:58:27.747Z,2.96
2023-02-02T15:08:46.903Z,3.00
2023-02-02T15:19:07.515Z,3.00
2023-02-02T15:29:25.095Z,2.86
2023-02-02T15:39:53.183Z,2.61
2023-02-02T15:50:19.777Z,2.44
2023-02-02T16:00:59.256Z,2.34
2023-02-02T16:11:16.396Z,2.32
2023-02-02T16:21:38.442Z,2.20
2023-02-02T16:31:56.451Z,2.16
2023-02-02T16:42:32.057Z,2.28
2023-02-02T16:52:54.022Z,2.34
2023-02-02T17:03:19.268Z,2.33
2023-02-02T17:13:52.294Z,2.33
2023-02-02T17:23:57.240Z,2.29
2023-02-02T17:34:24.189Z,2.37
2023-02-02T17:44:40.145Z,2.41
2023-02-02T17:54:49.473Z,2.38
2023-02-02T18:05:25.903Z,2.33
2023-02-02T18:16:07.686Z,2.25
2023-02-02T18:26:42.319Z,2.12
2023-02-02T18:37:20.605Z,2.09
2023-02-02T18:59:44.758Z,1.82
2023-02-02T19:10:13.867Z,1.73
2023-02-02T19:21:03.465Z,1.63
2023-02-02T19:32:14.227Z,1.64
2023-02-02T19:43:07.244Z,1.65
2023-02-02T19:53:57.847Z,1.54
2023-02-02T20:05:01.841Z,1.55
2023-02-02T20:15:46.408Z,1.63
2023-02-02T20:26:38.738Z,1.59
2023-02-02T20:36:46.777Z,1.55
2023-02-02T20:47:56.482Z,1.52
2023-02-02T20:58:42.586Z,1.34
2023-02-02T21:09:42.632Z,1.28
2023-02-02T21:20:16.503Z,1.24
2023-02-02T21:30:51.915Z,1.26
2023-02-02T21:41:36.647Z,1.21
2023-02-02T21:52:14.197Z,1.08
2023-02-02T22:03:21.813Z,1.08
2023-02-02T22:14:06.780Z,1.06
2023-02-02T22:24:57.214Z,1.02
2023-02-02T22:35:24.559Z,1.07
2023-02-02T22:46:19.119Z,1.01
2023-02-02T22:57:43.121Z,0.97
2023-02-02T23:08:49.524Z,0.93
2023-02-02T23:20:01.757Z,0.93
2023-02-02T23:31:00.608Z,0.85
2023-02-02T23:42:13.044Z,0.79
2023-02-02T23:52:57.997Z,0.87
